You are not logged in, Click here to log in
ICAO: SBGL Country: 巴西加利昂
Latitude: -22.8089 Longitude: -43.2436
Total Arrivals: 7 Total Departures: 9
Latest Arrival: G34931 (SBSP-SBGL)Jason. Li Latest Departure: JJ3550 (SBGL-SBSL)Jason. Li
Scenery:
METAR : SBGL 232000Z 11006KT 9999 BKN027 BKN040 18/16 Q1019

里約熱內盧/加利昂國際機場GIG